Time;durP1;ratioP1;P1;durP2;ratioP2;P2;SDS_P1;SDS_P2;PMS_P1;PMS_P2;Temp;Humidity;BMP_temperature;BMP_pressure;BME280_temperature;BME280_humidity;BME280_pressure;Samples;Min_cycle;Max_cycle;Signal;HPM_P1;HPM_P2
2023/02/17 00:01:14;;;;;;;20.77;14.53;;;;;;;7.31;81.80;99643.28;5075921;28;39792;-84
2023/02/17 00:03:42;;;;;;;18.87;13.87;;;;;;;7.36;81.71;99652.78;5075957;28;41820;-85
2023/02/17 00:06:11;;;;;;;19.37;13.23;;;;;;;7.26;81.73;99634.72;5075776;28;41796;-86
2023/02/17 00:08:39;;;;;;;15.33;12.50;;;;;;;7.35;81.71;99637.88;5092528;28;42090;-84
2023/02/17 00:11:07;;;;;;;19.80;13.93;;;;;;;7.32;81.82;99635.34;5075857;28;39094;-86
2023/02/17 00:13:35;;;;;;;19.10;13.83;;;;;;;7.44;82.00;99650.69;5075693;28;41111;-84
2023/02/17 00:16:07;;;;;;;21.57;14.73;;;;;;;7.47;82.33;99640.06;5075714;28;44508;-85
2023/02/17 00:18:36;;;;;;;18.13;13.83;;;;;;;7.42;82.41;99628.81;5075591;28;41482;-83
2023/02/17 00:21:15;;;;;;;18.70;13.47;;;;;;;7.55;82.26;99637.13;5075650;28;38821;-86
2023/02/17 00:23:43;;;;;;;17.17;12.63;;;;;;;7.63;82.61;99637.72;5092651;28;41810;-87
2023/02/17 00:26:12;;;;;;;15.97;12.60;;;;;;;7.55;82.36;99619.53;5075591;28;42020;-88
2023/02/17 00:28:40;;;;;;;17.37;12.87;;;;;;;7.64;82.38;99625.38;5075311;28;41141;-85
2023/02/17 11:05:42;;;;;;;2.23;2.03;;;;;;;11.24;100.00;99504.59;5109380;28;20560;-83
2023/02/17 11:08:30;;;;;;;2.60;2.40;;;;;;;11.68;100.00;99494.13;5126932;27;39602;-82
2023/02/17 11:11:04;;;;;;;2.67;2.43;;;;;;;12.30;97.40;99511.78;5087839;28;41999;-83
2023/02/17 11:13:36;;;;;;;2.27;2.07;;;;;;;12.71;93.31;99513.75;5086921;28;43396;-79
2023/02/17 11:16:05;;;;;;;2.40;2.20;;;;;;;13.02;90.46;99510.91;5125119;27;42031;-83
2023/02/17 11:18:35;;;;;;;2.43;2.03;;;;;;;13.11;87.98;99491.72;5107400;28;38796;-82
2023/02/17 11:21:07;;;;;;;1.70;1.60;;;;;;;13.45;86.47;99526.88;5125344;27;41113;-83
2023/02/17 11:23:36;;;;;;;1.90;1.70;;;;;;;13.45;84.74;99510.91;5104829;28;42827;-82
2023/02/17 11:26:10;;;;;;;1.90;1.80;;;;;;;13.57;83.76;99520.78;5108277;28;41002;-86
2023/02/17 11:28:38;;;;;;;2.03;1.83;;;;;;;13.55;83.40;99512.03;5124707;27;39013;-84
2023/02/17 11:31:08;;;;;;;2.20;1.73;;;;;;;13.58;82.31;99517.16;5108076;28;40688;-84
2023/02/17 11:33:37;;;;;;;1.73;1.63;;;;;;;13.52;81.56;99512.22;5090339;28;42286;-85
2023/02/17 11:36:12;;;;;;;1.50;1.30;;;;;;;13.53;81.54;99505.94;5091293;28;40702;-87
2023/02/17 11:38:44;;;;;;;1.50;1.40;;;;;;;13.52;81.13;99497.13;5090381;28;39800;-84
2023/02/17 11:41:13;;;;;;;1.40;1.30;;;;;;;13.59;80.77;99500.25;5091046;28;41410;-84
2023/02/17 11:43:52;;;;;;;1.60;1.50;;;;;;;13.69;80.88;99504.03;5107397;28;43133;-85
2023/02/17 11:46:28;;;;;;;2.37;1.70;;;;;;;13.77;80.36;99475.09;5090649;28;41085;-85
2023/02/17 11:49:36;;;;;;;2.43;1.90;;;;;;;14.01;78.91;99492.09;5091336;28;38959;-85
2023/02/17 11:52:18;;;;;;;1.50;1.40;;;;;;;14.04;78.23;99483.06;5086733;28;40600;-85
2023/02/17 11:54:59;;;;;;;1.60;1.50;;;;;;;14.10;77.67;99460.47;5069845;28;42278;-86
2023/02/17 11:57:38;;;;;;;1.60;1.37;;;;;;;14.32;77.39;99488.25;5079694;28;41061;-83
2023/02/17 12:00:16;;;;;;;1.90;1.70;;;;;;;14.27;76.83;99476.19;5124853;27;39526;-83
2023/02/17 12:03:04;;;;;;;2.03;1.37;;;;;;;14.46;76.81;99481.16;5107189;28;41346;-83
2023/02/17 12:05:48;;;;;;;1.40;1.30;;;;;;;14.52;75.03;99478.91;5107894;28;42888;-83
2023/02/17 12:08:24;;;;;;;1.40;1.30;;;;;;;14.57;74.87;99482.13;5089711;28;42308;-83
2023/02/17 12:11:05;;;;;;;1.73;1.63;;;;;;;14.76;74.43;99492.34;5090446;28;39891;-86
2023/02/17 12:13:48;;;;;;;1.73;1.63;;;;;;;14.73;74.23;99477.41;5106872;28;42246;-86
2023/02/17 12:16:27;;;;;;;2.83;1.60;;;;;;;14.60;74.19;99465.91;5080574;28;41852;-84
2023/02/17 12:19:04;;;;;;;1.93;1.63;;;;;;;14.68;74.14;99479.56;5076421;28;42222;-86
2023/02/17 12:21:48;;;;;;;2.73;2.00;;;;;;;14.62;74.33;99474.66;5076973;28;39031;-84
2023/02/17 12:24:34;;;;;;;1.73;1.63;;;;;;;14.63;74.12;99468.34;5091853;28;41864;-84
2023/02/17 12:27:10;;;;;;;2.20;1.60;;;;;;;14.81;74.29;99489.38;5090262;28;43545;-80
2023/02/17 12:29:54;;;;;;;1.20;1.20;;;;;;;14.75;74.05;99485.31;5093806;28;41131;-84
2023/02/17 12:32:39;;;;;;;3.00;1.37;;;;;;;14.53;73.86;99437.13;5093135;28;40880;-85
2023/02/17 12:35:17;;;;;;;1.90;1.80;;;;;;;14.79;73.73;99467.31;5092721;28;41417;-83
2023/02/17 12:37:51;;;;;;;1.80;1.70;;;;;;;14.52;73.49;99417.59;5090763;28;43682;-80
2023/02/17 12:40:32;;;;;;;1.80;1.70;;;;;;;14.81;73.66;99446.72;5092959;28;42168;-83
2023/02/17 12:43:05;;;;;;;1.63;1.53;;;;;;;14.82;73.23;99459.94;5092772;28;39931;-82
2023/02/17 12:45:40;;;;;;;1.67;1.57;;;;;;;14.82;73.27;99449.28;5090027;28;42666;-83
2023/02/17 12:48:14;;;;;;;2.10;1.90;;;;;;;14.99;73.52;99461.41;5092598;28;43234;-80
2023/02/17 12:50:52;;;;;;;2.13;1.73;;;;;;;15.02;73.09;99461.19;5092340;28;41497;-83
2023/02/17 12:53:28;;;;;;;2.07;1.87;;;;;;;15.11;72.81;99457.88;5092236;28;39288;-84
2023/02/17 12:56:03;;;;;;;2.60;1.93;;;;;;;15.16;72.57;99442.38;5089593;28;42762;-85
2023/02/17 12:58:31;;;;;;;2.63;2.00;;;;;;;15.25;71.69;99447.06;5071784;28;41727;-83
2023/02/17 13:01:04;;;;;;;2.90;1.70;;;;;;;15.54;71.58;99452.09;5055955;28;43199;-83
2023/02/17 13:03:33;;;;;;;2.03;1.70;;;;;;;15.50;70.50;99450.59;5070036;28;38771;-84
2023/02/17 13:06:04;;;;;;;2.00;1.83;;;;;;;15.44;70.57;99426.09;5070006;28;41901;-84
2023/02/17 13:08:39;;;;;;;1.77;1.67;;;;;;;15.53;70.74;99429.03;5088993;28;42791;-84
2023/02/17 13:11:13;;;;;;;3.10;1.80;;;;;;;15.45;70.43;99422.41;5093134;28;42489;-82
2023/02/17 13:13:41;;;;;;;2.23;2.00;;;;;;;15.45;70.57;99425.09;5075727;28;38912;-85
2023/02/17 13:16:11;;;;;;;1.80;1.70;;;;;;;15.46;70.61;99440.16;5092841;28;42178;-83
2023/02/17 13:18:40;;;;;;;2.10;1.90;;;;;;;15.49;70.96;99438.22;5093274;28;42693;-84
2023/02/17 13:21:27;;;;;;;2.20;2.00;;;;;;;15.60;70.37;99436.50;5093935;28;43192;-82
2023/02/17 13:24:00;;;;;;;1.67;1.53;;;;;;;15.67;70.16;99442.25;5075976;28;40206;-85
2023/02/17 13:26:32;;;;;;;2.10;1.80;;;;;;;15.69;69.61;99440.31;5074672;28;42060;-87
2023/02/17 13:29:18;;;;;;;1.90;1.77;;;;;;;15.65;69.93;99444.19;5090865;28;43227;-82
2023/02/17 13:31:54;;;;;;;2.10;1.97;;;;;;;15.52;69.90;99459.38;5091883;28;41041;-85
2023/02/17 13:34:32;;;;;;;1.77;1.67;;;;;;;15.55;70.38;99445.81;5091380;28;40795;-88
2023/02/17 13:37:02;;;;;;;1.77;1.63;;;;;;;15.30;70.00;99406.69;5092296;28;40959;-89
2023/02/17 13:39:37;;;;;;;1.90;1.80;;;;;;;15.58;69.68;99427.75;5092203;28;42740;-86
2023/02/17 13:42:33;;;;;;;1.63;1.53;;;;;;;15.79;70.11;99419.97;5071974;28;43438;-85
2023/02/17 13:45:02;;;;;;;2.13;1.70;;;;;;;15.82;69.10;99431.25;5055941;28;38775;-87
2023/02/17 13:47:34;;;;;;;2.90;1.67;;;;;;;15.96;68.91;99418.69;5098569;28;42377;-85
2023/02/17 13:50:02;;;;;;;1.80;1.70;;;;;;;16.01;68.79;99414.72;5092086;28;43348;-85
2023/02/17 13:52:32;;;;;;;1.83;1.63;;;;;;;16.16;67.59;99415.38;5074821;28;41136;-86
2023/02/17 13:55:02;;;;;;;1.90;1.70;;;;;;;16.08;67.63;99415.94;5075395;28;39975;-88
2023/02/17 13:57:34;;;;;;;1.63;1.53;;;;;;;16.05;67.76;99415.34;5072080;28;40383;-88
2023/02/17 14:00:10;;;;;;;2.13;1.90;;;;;;;15.91;68.21;99402.19;5072715;28;42797;-89
2023/02/17 14:02:47;;;;;;;2.20;1.87;;;;;;;15.80;68.23;99392.31;5083452;28;41589;-89
2023/02/17 14:05:20;;;;;;;1.60;1.50;;;;;;;15.83;68.64;99421.44;5075542;28;39102;-90
2023/02/17 14:07:49;;;;;;;2.00;1.80;;;;;;;15.61;68.64;99378.63;5075436;28;42217;-84
2023/02/17 14:10:22;;;;;;;2.20;2.00;;;;;;;15.86;68.79;99399.84;5092137;28;43033;-83
2023/02/17 14:12:52;;;;;;;1.87;1.57;;;;;;;15.93;68.65;99382.41;5075420;28;40983;-91
2023/02/17 14:15:23;;;;;;;1.70;1.60;;;;;;;15.88;68.30;99371.19;5109999;28;38790;-82
2023/02/17 14:17:51;;;;;;;1.83;1.53;;;;;;;15.90;68.18;99374.59;5090082;28;41849;-84
2023/02/17 14:20:32;;;;;;;2.50;1.43;;;;;;;15.97;68.46;99365.16;5092244;28;43478;-88
2023/02/17 14:23:06;;;;;;;1.63;1.53;;;;;;;15.99;68.04;99373.03;5092077;28;41081;-86
2023/02/17 14:25:36;;;;;;;1.50;1.40;;;;;;;16.01;68.25;99371.97;5075057;28;42058;-85
2023/02/17 14:28:18;;;;;;;1.53;1.43;;;;;;;15.95;68.13;99361.72;5074714;28;41668;-87
2023/02/17 14:30:46;;;;;;;1.50;1.40;;;;;;;16.03;68.15;99367.38;5074913;28;41618;-86
2023/02/17 14:33:21;;;;;;;1.53;1.43;;;;;;;16.03;68.11;99348.66;5071182;28;40883;-89
2023/02/17 14:35:54;;;;;;;1.47;1.37;;;;;;;15.85;67.98;99354.53;5054874;28;40056;-85
2023/02/17 14:38:25;;;;;;;1.40;1.20;;;;;;;15.40;68.67;99298.28;5074342;28;40924;-84
2023/02/17 14:40:54;;;;;;;1.20;1.10;;;;;;;15.43;69.33;99349.63;5074990;28;42161;-84
2023/02/17 14:43:24;;;;;;;1.53;1.37;;;;;;;15.45;69.71;99377.03;5070952;28;41269;-87
2023/02/17 14:45:52;;;;;;;1.57;1.30;;;;;;;15.35;70.19;99381.38;5054509;28;40268;-84
2023/02/17 14:48:20;;;;;;;1.87;1.40;;;;;;;15.06;70.51;99347.97;5070418;28;41740;-88
2023/02/17 14:50:48;;;;;;;1.67;1.57;;;;;;;15.08;70.98;99359.41;5074530;28;41695;-86
2023/02/17 14:53:24;;;;;;;1.50;1.40;;;;;;;15.16;71.17;99380.16;5074473;28;42140;-86
2023/02/17 14:55:56;;;;;;;2.60;2.13;;;;;;;15.01;71.38;99368.78;5075153;28;38978;-85
2023/02/17 14:58:27;;;;;;;1.87;1.70;;;;;;;14.82;71.67;99339.09;5091390;28;41215;-83
2023/02/17 15:00:55;;;;;;;1.80;1.70;;;;;;;14.84;72.14;99350.47;5074710;28;41757;-85
2023/02/17 15:03:23;;;;;;;2.97;1.70;;;;;;;14.94;72.04;99372.88;5070367;28;41183;-84
2023/02/17 15:05:51;;;;;;;2.63;1.37;;;;;;;14.81;72.44;99364.91;5102117;28;39980;-86
2023/02/17 15:08:21;;;;;;;1.83;1.60;;;;;;;14.83;72.62;99370.13;5070302;28;43663;-86
2023/02/17 15:10:50;;;;;;;2.10;1.33;;;;;;;14.96;72.61;99381.63;5073987;28;41816;-86
2023/02/17 15:13:19;;;;;;;1.50;1.40;;;;;;;14.98;72.44;99383.19;5073646;28;43968;-84
2023/02/17 15:15:48;;;;;;;1.60;1.50;;;;;;;14.98;72.47;99390.34;5074138;28;38948;-84
2023/02/17 15:18:19;;;;;;;1.90;1.70;;;;;;;14.96;72.11;99400.28;5090409;28;40953;-82
2023/02/17 15:20:49;;;;;;;1.50;1.40;;;;;;;14.97;72.50;99388.63;5088324;28;42566;-89
2023/02/17 15:23:19;;;;;;;1.80;1.50;;;;;;;14.84;72.41;99372.66;5073942;28;41508;-83
2023/02/17 15:25:48;;;;;;;1.47;1.33;;;;;;;14.84;72.74;99387.81;5091162;28;39010;-84
2023/02/17 15:28:18;;;;;;;1.73;1.63;;;;;;;14.70;73.03;99365.69;5073657;28;41872;-83
2023/02/17 15:30:51;;;;;;;1.60;1.50;;;;;;;14.78;72.95;99385.59;5091691;28;42665;-84
2023/02/17 15:33:21;;;;;;;1.57;1.33;;;;;;;14.76;73.25;99395.50;5087546;28;42272;-85
2023/02/17 15:35:52;;;;;;;1.70;1.60;;;;;;;14.73;73.17;99391.25;5090861;28;39960;-84
2023/02/17 15:38:20;;;;;;;1.63;1.53;;;;;;;14.68;73.32;99380.06;5090468;28;40974;-84
2023/02/17 15:40:48;;;;;;;2.07;1.83;;;;;;;14.65;73.57;99389.13;5073506;28;41364;-80
2023/02/17 15:43:18;;;;;;;1.60;1.50;;;;;;;14.57;73.90;99377.31;5091639;28;43176;-82
2023/02/17 15:46:06;;;;;;;2.40;1.70;;;;;;;14.47;74.21;99369.09;5090822;28;38787;-81
2023/02/17 15:48:36;;;;;;;1.60;1.50;;;;;;;14.46;74.39;99370.09;5087399;28;41675;-81
2023/02/17 15:51:04;;;;;;;2.53;1.40;;;;;;;14.23;74.48;99349.47;5075459;28;41492;-83
2023/02/17 15:53:33;;;;;;;1.87;1.60;;;;;;;14.43;74.61;99396.94;5076828;28;41274;-81
2023/02/17 15:56:01;;;;;;;1.70;1.60;;;;;;;14.14;74.71;99350.09;5077318;28;38980;-87
2023/02/17 15:58:30;;;;;;;1.87;1.60;;;;;;;14.42;75.04;99402.38;5076428;28;40712;-83
2023/02/17 16:01:02;;;;;;;1.97;1.60;;;;;;;14.35;75.08;99397.41;5077242;28;42850;-84
2023/02/17 16:03:30;;;;;;;1.90;1.80;;;;;;;14.34;75.56;99406.38;5072545;28;41306;-82
2023/02/17 16:05:59;;;;;;;1.57;1.47;;;;;;;14.31;75.90;99405.75;5072164;28;39868;-83
2023/02/17 16:08:27;;;;;;;1.47;1.37;;;;;;;14.06;76.06;99365.78;5090118;28;41717;-82
2023/02/17 16:10:55;;;;;;;1.70;1.60;;;;;;;14.13;75.85;99373.22;5110731;28;42049;-83
2023/02/17 16:13:26;;;;;;;2.10;1.43;;;;;;;14.20;75.99;99381.66;5093095;28;41202;-84
2023/02/17 16:15:57;;;;;;;1.93;1.73;;;;;;;14.25;76.18;99384.84;5094104;28;39725;-86
2023/02/17 16:18:25;;;;;;;2.03;1.83;;;;;;;14.03;76.78;99362.34;5073038;28;41826;-84
2023/02/17 16:20:53;;;;;;;1.80;1.70;;;;;;;14.09;76.81;99357.56;5056804;28;42427;-86
2023/02/17 16:23:22;;;;;;;1.67;1.57;;;;;;;14.08;77.02;99386.03;5072512;28;41107;-84
2023/02/17 16:25:50;;;;;;;2.77;2.30;;;;;;;13.91;76.88;99349.88;5093650;28;39081;-83
2023/02/17 16:28:21;;;;;;;2.10;1.90;;;;;;;14.16;76.80;99385.47;5076472;28;40642;-87
2023/02/17 16:30:50;;;;;;;2.63;1.73;;;;;;;13.94;77.20;99364.81;5076944;28;41827;-83
2023/02/17 16:33:18;;;;;;;2.20;2.00;;;;;;;14.08;77.00;99387.84;5093280;28;42514;-87
2023/02/17 16:35:46;;;;;;;1.93;1.63;;;;;;;13.91;77.51;99359.69;5076663;28;39374;-84
2023/02/17 16:38:18;;;;;;;2.07;1.73;;;;;;;13.90;77.77;99368.63;5076034;28;41776;-87
2023/02/17 16:40:49;;;;;;;2.57;1.90;;;;;;;13.88;78.41;99387.34;5076833;28;42781;-85
2023/02/17 16:43:20;;;;;;;2.27;1.87;;;;;;;13.88;78.59;99390.03;5076319;28;41252;-87
2023/02/17 16:45:52;;;;;;;2.00;1.90;;;;;;;13.93;78.71;99395.91;5077126;28;40372;-87
2023/02/17 16:48:22;;;;;;;2.77;1.80;;;;;;;13.81;78.90;99370.09;5090226;28;41732;-87
2023/02/17 16:50:50;;;;;;;1.90;1.80;;;;;;;13.92;78.83;99393.34;5074667;28;42119;-84
2023/02/17 16:53:18;;;;;;;1.93;1.83;;;;;;;13.89;79.25;99394.38;5076545;28;41446;-88
2023/02/17 16:55:47;;;;;;;2.43;2.20;;;;;;;13.85;79.77;99408.84;5076443;28;39188;-85
2023/02/17 16:58:17;;;;;;;2.23;2.00;;;;;;;13.60;79.77;99366.19;5093638;28;40714;-87
2023/02/17 17:00:50;;;;;;;2.40;2.20;;;;;;;13.47;80.47;99346.72;5076686;28;41615;-84
2023/02/17 17:03:18;;;;;;;2.37;2.03;;;;;;;13.62;80.62;99374.94;5076357;28;41308;-87
2023/02/17 17:05:46;;;;;;;2.30;2.10;;;;;;;13.62;80.78;99385.59;5076811;28;38465;-85
2023/02/17 17:08:16;;;;;;;2.50;2.30;;;;;;;13.81;80.49;99418.03;5076186;28;41041;-83
2023/02/17 17:10:45;;;;;;;2.37;2.17;;;;;;;13.81;80.50;99423.34;5093391;28;43229;-86
2023/02/17 17:13:15;;;;;;;2.67;2.07;;;;;;;13.78;80.70;99439.53;5093408;28;43174;-86
2023/02/17 17:15:45;;;;;;;3.10;2.27;;;;;;;13.79;80.49;99438.56;5076659;28;39941;-85
2023/02/17 17:18:20;;;;;;;2.27;2.07;;;;;;;13.81;81.02;99431.34;5093397;28;40924;-88
2023/02/17 17:20:47;;;;;;;3.17;2.70;;;;;;;13.64;81.04;99426.25;5076283;28;45195;-83
2023/02/17 17:23:17;;;;;;;2.57;2.17;;;;;;;13.73;81.27;99446.94;5076168;28;42706;-83
2023/02/17 17:25:46;;;;;;;3.53;2.40;;;;;;;13.59;81.23;99423.94;5093045;28;39276;-82
2023/02/17 17:28:17;;;;;;;4.13;2.80;;;;;;;13.65;81.99;99439.47;5093796;28;41922;-85
2023/02/17 17:30:46;;;;;;;3.17;2.70;;;;;;;13.62;82.22;99428.16;5076216;28;43130;-83
2023/02/17 17:33:15;;;;;;;3.13;2.83;;;;;;;13.45;82.30;99408.00;5076083;28;42297;-87
2023/02/17 17:35:42;;;;;;;3.10;2.80;;;;;;;13.45;82.64;99426.63;5093486;28;40405;-84
2023/02/17 17:38:14;;;;;;;2.80;2.60;;;;;;;13.42;82.58;99416.19;5075587;28;41632;-84
2023/02/17 17:40:52;;;;;;;3.20;2.90;;;;;;;13.38;83.08;99419.97;5076797;28;41831;-85
